createdAt,value
2022-11-13T00:00:50.380Z,5.02
2022-11-13T00:03:17.193Z,5.00
2022-11-13T00:05:44.187Z,5.00
2022-11-13T00:08:11.036Z,4.97
2022-11-13T00:10:37.980Z,4.96
2022-11-13T00:13:04.825Z,4.95
2022-11-13T00:15:31.663Z,4.94
2022-11-13T00:18:02.532Z,4.93
2022-11-13T00:20:29.498Z,4.88
2022-11-13T00:22:56.438Z,4.87
2022-11-13T00:25:23.319Z,4.88
2022-11-13T00:27:50.229Z,4.82
2022-11-13T00:30:19.434Z,4.76
2022-11-13T00:32:46.554Z,4.81
2022-11-13T00:35:13.358Z,4.76
2022-11-13T00:37:40.169Z,4.69
2022-11-13T00:40:07.450Z,4.76
2022-11-13T00:42:34.322Z,4.75
2022-11-13T00:45:01.129Z,4.58
2022-11-13T00:47:28.093Z,4.31
2022-11-13T00:49:54.951Z,4.23
2022-11-13T00:52:21.701Z,4.14
2022-11-13T00:54:48.539Z,4.29
2022-11-13T00:57:15.382Z,4.42
2022-11-13T00:59:42.426Z,4.48
2022-11-13T01:02:10.171Z,4.54
2022-11-13T01:04:37.128Z,4.36
2022-11-13T01:07:04.028Z,4.49
2022-11-13T01:09:30.918Z,4.52
2022-11-13T01:11:57.752Z,4.38
2022-11-13T01:14:24.638Z,4.47
2022-11-13T01:16:51.740Z,4.53
2022-11-13T01:19:18.867Z,4.54
2022-11-13T01:21:45.706Z,4.55
2022-11-13T01:24:12.515Z,4.59
2022-11-13T01:26:39.308Z,4.64
2022-11-13T01:29:07.267Z,4.63
2022-11-13T01:31:34.135Z,4.70
2022-11-13T01:34:00.977Z,4.72
2022-11-13T01:36:29.279Z,4.75
2022-11-13T01:38:56.739Z,4.74
2022-11-13T01:41:29.672Z,4.82
2022-11-13T01:43:56.919Z,4.83
2022-11-13T01:46:34.957Z,4.86
2022-11-13T01:49:10.780Z,4.92
2022-11-13T01:51:41.988Z,4.95
2022-11-13T01:54:12.225Z,4.77
2022-11-13T01:56:40.537Z,4.74
2022-11-13T01:59:14.710Z,4.74
2022-11-13T02:01:41.761Z,4.70
2022-11-13T02:04:08.914Z,4.76
2022-11-13T02:06:57.104Z,4.63
2022-11-13T02:09:29.436Z,4.65
2022-11-13T02:11:56.408Z,4.57
2022-11-13T02:14:26.328Z,4.64
2022-11-13T02:16:56.743Z,4.82
2022-11-13T02:19:33.627Z,4.89
2022-11-13T02:22:34.642Z,5.00
2022-11-13T02:25:02.849Z,5.04
2022-11-13T02:27:36.662Z,4.99
2022-11-13T02:30:23.750Z,4.92
2022-11-13T02:32:54.811Z,4.83
2022-11-13T02:35:28.123Z,4.84
2022-11-13T02:37:55.903Z,4.87
2022-11-13T02:40:23.949Z,4.92
2022-11-13T02:42:50.924Z,5.10
2022-11-13T02:45:17.896Z,5.20
2022-11-13T02:47:45.070Z,5.29
2022-11-13T02:50:12.241Z,5.34
2022-11-13T02:52:39.147Z,5.37
2022-11-13T02:55:06.828Z,5.42
2022-11-13T02:57:33.704Z,5.47
2022-11-13T03:00:00.759Z,5.39
2022-11-13T03:02:27.643Z,5.43
2022-11-13T03:07:42.207Z,5.17
2022-11-13T03:10:10.764Z,5.28
2022-11-13T03:12:38.679Z,5.38
2022-11-13T03:15:07.044Z,5.45
2022-11-13T03:17:34.108Z,5.44
2022-11-13T03:20:04.036Z,5.54
2022-11-13T03:22:30.840Z,5.50
2022-11-13T03:24:57.801Z,5.48
2022-11-13T03:27:24.642Z,5.57
2022-11-13T03:29:51.606Z,5.56
2022-11-13T03:32:18.752Z,5.61
2022-11-13T03:34:45.532Z,5.65
2022-11-13T03:37:12.342Z,5.69
2022-11-13T03:39:39.837Z,5.74
2022-11-13T03:42:06.582Z,5.75
2022-11-13T03:44:33.501Z,5.75
2022-11-13T03:47:00.351Z,5.79
2022-11-13T03:49:27.403Z,5.81
2022-11-13T03:51:54.259Z,5.75
2022-11-13T03:54:21.032Z,5.72
2022-11-13T03:56:47.911Z,5.80
2022-11-13T03:59:14.699Z,5.84
2022-11-13T04:01:41.510Z,5.89
2022-11-13T04:04:08.360Z,5.91
2022-11-13T04:06:35.173Z,5.94
2022-11-13T04:09:02.426Z,5.95
2022-11-13T04:11:29.491Z,6.00
2022-11-13T04:13:56.930Z,6.03
2022-11-13T04:16:23.770Z,6.00
2022-11-13T04:18:51.900Z,6.02
2022-11-13T04:21:18.727Z,5.95
2022-11-13T04:23:45.492Z,6.00
2022-11-13T04:26:12.322Z,6.04
2022-11-13T04:28:45.272Z,6.01
2022-11-13T04:31:12.090Z,6.04
2022-11-13T04:33:38.878Z,5.87
2022-11-13T04:36:06.033Z,5.84
2022-11-13T04:38:32.851Z,5.78
2022-11-13T04:41:18.287Z,5.80
2022-11-13T04:43:45.063Z,5.71
2022-11-13T04:46:11.905Z,5.66
2022-11-13T04:48:38.731Z,5.63
2022-11-13T04:51:05.998Z,5.61
2022-11-13T04:53:32.832Z,5.56
2022-11-13T04:55:59.594Z,5.67
2022-11-13T04:58:26.735Z,5.68
2022-11-13T05:00:53.804Z,5.57
2022-11-13T05:03:20.601Z,5.63
2022-11-13T05:05:47.457Z,5.75
2022-11-13T05:08:14.343Z,5.84
2022-11-13T05:10:41.211Z,5.88
2022-11-13T05:13:07.973Z,5.87
2022-11-13T05:15:34.892Z,5.89
2022-11-13T05:18:01.872Z,5.96
2022-11-13T05:20:29.380Z,5.99
2022-11-13T05:22:56.298Z,5.89
2022-11-13T05:25:23.178Z,5.88
2022-11-13T05:27:49.958Z,5.96
2022-11-13T05:30:16.859Z,6.01
2022-11-13T05:32:43.716Z,6.05
2022-11-13T05:35:10.584Z,6.05
2022-11-13T05:37:37.409Z,6.08
2022-11-13T05:40:04.672Z,6.02
2022-11-13T05:42:31.626Z,6.09
2022-11-13T05:44:58.500Z,6.09
2022-11-13T05:47:25.415Z,6.12
2022-11-13T05:49:52.247Z,6.13
2022-11-13T05:52:19.032Z,6.15
2022-11-13T05:54:45.863Z,6.03
2022-11-13T05:57:12.766Z,5.92
2022-11-13T05:59:39.686Z,6.00
2022-11-13T06:02:06.585Z,5.96
2022-11-13T06:04:33.600Z,5.99
2022-11-13T06:07:00.506Z,5.96
2022-11-13T06:09:27.358Z,6.07
2022-11-13T06:11:54.157Z,6.10
2022-11-13T06:14:20.948Z,6.09
2022-11-13T06:16:47.814Z,6.17
2022-11-13T06:19:14.687Z,6.14
2022-11-13T06:21:41.888Z,6.08
2022-11-13T06:24:11.940Z,6.16
2022-11-13T06:26:38.928Z,6.13
2022-11-13T06:29:07.130Z,6.19
2022-11-13T06:31:36.442Z,6.26
2022-11-13T06:34:04.594Z,6.25
2022-11-13T06:36:36.617Z,6.32
2022-11-13T06:39:09.029Z,6.32
2022-11-13T06:41:37.344Z,6.22
2022-11-13T06:44:04.220Z,6.23
2022-11-13T06:46:31.811Z,6.03
2022-11-13T06:48:59.378Z,6.16
2022-11-13T06:51:29.084Z,5.88
2022-11-13T06:53:56.979Z,5.97
2022-11-13T06:56:24.126Z,6.06
2022-11-13T06:58:51.051Z,5.96
2022-11-13T07:01:20.275Z,6.04
2022-11-13T07:03:47.300Z,6.19
2022-11-13T07:06:16.937Z,6.25
2022-11-13T07:08:44.802Z,6.20
2022-11-13T07:11:13.735Z,6.12
2022-11-13T07:13:40.955Z,6.05
2022-11-13T07:16:16.270Z,6.11
2022-11-13T07:18:45.164Z,6.25
2022-11-13T07:21:13.508Z,6.28
2022-11-13T07:23:43.757Z,6.30
2022-11-13T07:26:11.516Z,6.31
2022-11-13T07:28:38.627Z,6.04
2022-11-13T07:31:05.997Z,6.28
2022-11-13T07:33:33.163Z,6.08
2022-11-13T07:36:00.476Z,6.03
2022-11-13T07:38:27.649Z,6.13
2022-11-13T07:40:55.058Z,6.23
2022-11-13T07:43:22.995Z,6.25
2022-11-13T07:45:54.660Z,6.17
2022-11-13T07:48:22.747Z,6.32
2022-11-13T07:50:50.140Z,6.06
2022-11-13T07:53:18.281Z,5.92
2022-11-13T07:55:45.186Z,5.99
2022-11-13T07:58:12.706Z,6.06
2022-11-13T08:00:40.118Z,6.22
2022-11-13T08:03:13.360Z,5.89
2022-11-13T08:05:40.893Z,6.01
2022-11-13T08:08:08.742Z,6.16
2022-11-13T08:10:36.288Z,6.24
2022-11-13T08:13:06.348Z,6.35
2022-11-13T08:15:33.718Z,6.16
2022-11-13T08:18:02.839Z,6.30
2022-11-13T08:20:30.736Z,6.39
2022-11-13T08:22:58.673Z,6.59
2022-11-13T08:25:25.716Z,6.74
2022-11-13T08:27:54.007Z,6.76
2022-11-13T08:30:21.071Z,6.75
2022-11-13T08:32:48.519Z,6.93
2022-11-13T08:35:19.131Z,6.99
2022-11-13T08:37:46.819Z,7.05
2022-11-13T08:40:14.114Z,6.86
2022-11-13T08:42:40.993Z,6.96
2022-11-13T08:45:08.406Z,6.77
2022-11-13T08:47:35.389Z,6.95
2022-11-13T08:50:02.730Z,7.07
2022-11-13T08:52:29.672Z,7.19
2022-11-13T08:54:56.567Z,7.13
2022-11-13T08:57:23.384Z,7.18
2022-11-13T08:59:50.756Z,7.25
2022-11-13T09:02:17.575Z,7.28
2022-11-13T09:04:44.462Z,7.21
2022-11-13T09:07:11.686Z,7.25
2022-11-13T09:09:38.770Z,7.07
2022-11-13T09:12:05.867Z,7.31
2022-11-13T09:14:32.711Z,7.44
2022-11-13T09:16:59.580Z,7.43
2022-11-13T09:19:27.015Z,7.48
2022-11-13T09:21:54.234Z,7.17
2022-11-13T09:24:21.280Z,7.24
2022-11-13T09:26:48.069Z,7.35
2022-11-13T09:29:15.020Z,7.51
2022-11-13T09:31:42.015Z,7.55
2022-11-13T09:34:09.597Z,7.67
2022-11-13T09:36:36.963Z,7.79
2022-11-13T09:39:04.998Z,7.86
2022-11-13T09:41:40.990Z,7.67
2022-11-13T09:44:34.449Z,7.60
2022-11-13T09:47:10.414Z,7.71
2022-11-13T09:49:45.420Z,7.61
2022-11-13T09:52:44.191Z,7.35
2022-11-13T09:55:17.308Z,7.14
2022-11-13T09:58:01.361Z,7.23
2022-11-13T10:00:29.567Z,7.21
2022-11-13T10:03:46.151Z,7.50
2022-11-13T10:06:28.058Z,7.44
2022-11-13T10:09:01.889Z,7.38
2022-11-13T10:11:43.090Z,7.35
2022-11-13T10:14:30.312Z,7.37
2022-11-13T10:17:27.192Z,7.55
2022-11-13T10:19:54.363Z,7.77
2022-11-13T10:22:44.765Z,7.89
2022-11-13T10:25:22.025Z,8.06
2022-11-13T10:28:15.854Z,8.06
2022-11-13T10:30:49.759Z,8.17
2022-11-13T10:33:21.732Z,8.31
2022-11-13T10:36:25.573Z,8.45
2022-11-13T10:39:06.067Z,8.44
2022-11-13T10:41:33.379Z,8.28
2022-11-13T10:44:08.171Z,8.34
2022-11-13T10:46:35.241Z,8.50
2022-11-13T10:49:20.121Z,8.54
2022-11-13T10:51:56.596Z,8.33
2022-11-13T10:54:33.555Z,8.40
2022-11-13T10:57:02.976Z,8.36
2022-11-13T10:59:41.700Z,8.34
2022-11-13T11:02:09.740Z,8.20
2022-11-13T11:04:36.514Z,8.27
2022-11-13T11:07:21.713Z,8.03
2022-11-13T11:09:50.922Z,8.23
2022-11-13T11:12:22.048Z,8.36
2022-11-13T11:14:57.382Z,8.53
2022-11-13T11:17:39.722Z,8.79
2022-11-13T11:20:08.613Z,8.87
2022-11-13T11:22:37.807Z,8.56
2022-11-13T11:25:07.636Z,8.81
2022-11-13T11:27:37.069Z,8.62
2022-11-13T11:30:29.280Z,8.69
2022-11-13T11:33:09.972Z,9.00
2022-11-13T11:35:44.433Z,9.13
2022-11-13T11:38:22.104Z,9.25
2022-11-13T11:40:54.077Z,9.03
2022-11-13T11:43:29.456Z,9.29
2022-11-13T11:45:56.704Z,9.41
2022-11-13T11:48:27.833Z,9.55
2022-11-13T11:51:27.972Z,9.68
2022-11-13T11:54:15.824Z,9.69
2022-11-13T11:56:48.277Z,9.65
2022-11-13T11:59:55.542Z,9.76
2022-11-13T12:02:28.223Z,9.66
2022-11-13T12:05:17.002Z,9.64
2022-11-13T12:07:58.448Z,9.81
2022-11-13T12:10:48.659Z,9.73
2022-11-13T12:13:22.410Z,9.90
2022-11-13T12:16:13.735Z,9.92
2022-11-13T12:19:04.288Z,9.92
2022-11-13T12:22:09.707Z,9.98
2022-11-13T12:24:49.065Z,9.96
2022-11-13T12:27:39.818Z,9.93
2022-11-13T12:30:18.153Z,9.94
2022-11-13T12:32:59.860Z,9.93
2022-11-13T12:35:27.257Z,9.70
2022-11-13T12:37:58.742Z,9.52
2022-11-13T12:40:29.523Z,9.63
2022-11-13T12:43:25.226Z,9.84
2022-11-13T12:45:56.888Z,9.86
2022-11-13T12:48:38.419Z,9.97
2022-11-13T12:51:08.221Z,10.06
2022-11-13T12:53:46.628Z,10.12
2022-11-13T12:56:28.569Z,10.11
2022-11-13T12:59:28.398Z,9.67
2022-11-13T13:02:11.027Z,9.69
2022-11-13T13:05:07.464Z,9.81
2022-11-13T13:08:15.324Z,9.97
2022-11-13T13:11:00.711Z,9.97
2022-11-13T13:13:47.428Z,9.98
2022-11-13T13:16:24.786Z,10.11
2022-11-13T13:18:52.465Z,10.23
2022-11-13T13:21:20.758Z,10.32
2022-11-13T13:23:50.687Z,10.30
2022-11-13T13:26:30.057Z,10.19
2022-11-13T13:29:02.128Z,10.14
2022-11-13T13:31:37.478Z,10.19
2022-11-13T13:34:45.001Z,10.24
2022-11-13T13:37:40.687Z,10.20
2022-11-13T13:40:35.848Z,10.25
2022-11-13T13:43:11.840Z,10.24
2022-11-13T13:46:06.619Z,9.75
2022-11-13T13:48:38.407Z,9.66
2022-11-13T13:51:15.926Z,9.60
2022-11-13T13:53:42.886Z,9.55
2022-11-13T13:56:11.682Z,9.42
2022-11-13T13:58:39.303Z,9.13
2022-11-13T14:01:22.972Z,9.13
2022-11-13T14:03:49.778Z,9.32
2022-11-13T14:06:24.251Z,9.24
2022-11-13T14:08:51.055Z,9.26
2022-11-13T14:11:23.014Z,9.20
2022-11-13T14:13:49.825Z,8.82
2022-11-13T14:16:16.946Z,8.92
2022-11-13T14:18:43.892Z,8.84
2022-11-13T14:21:17.272Z,8.94
2022-11-13T14:23:46.894Z,8.90
2022-11-13T14:26:13.840Z,8.90
2022-11-13T14:29:01.800Z,8.89
2022-11-13T14:31:34.148Z,8.84
2022-11-13T14:34:10.578Z,8.87
2022-11-13T14:36:38.208Z,8.78
2022-11-13T14:39:05.257Z,8.75
2022-11-13T14:41:36.334Z,8.50
2022-11-13T14:44:03.909Z,8.34
2022-11-13T14:46:35.454Z,8.28
2022-11-13T14:49:02.798Z,8.29
2022-11-13T14:51:33.868Z,8.27
2022-11-13T14:54:08.785Z,8.39
2022-11-13T14:56:43.983Z,8.13
2022-11-13T14:59:19.798Z,8.13
2022-11-13T15:01:57.592Z,8.02
2022-11-13T15:04:25.299Z,8.08
2022-11-13T15:06:56.061Z,8.00
2022-11-13T15:09:24.614Z,7.96
2022-11-13T15:11:51.638Z,7.99
2022-11-13T15:14:20.442Z,7.88
2022-11-13T15:16:48.285Z,7.95
2022-11-13T15:19:35.396Z,7.94
2022-11-13T15:22:26.078Z,8.01
2022-11-13T15:24:50.036Z,8.01
2022-11-13T15:27:18.799Z,7.94
2022-11-13T15:29:45.867Z,7.87
2022-11-13T15:32:14.857Z,7.73
2022-11-13T15:34:42.523Z,7.70
2022-11-13T15:37:14.474Z,7.63
2022-11-13T15:39:42.408Z,7.60
2022-11-13T15:42:17.921Z,7.58
2022-11-13T15:44:45.218Z,7.58
2022-11-13T15:47:34.933Z,7.56
2022-11-13T15:50:19.908Z,7.46
2022-11-13T15:52:49.713Z,7.45
2022-11-13T15:55:22.736Z,7.30
2022-11-13T15:57:49.907Z,7.24
2022-11-13T16:00:24.864Z,7.10
2022-11-13T16:02:56.604Z,7.17
2022-11-13T16:05:25.653Z,6.94
2022-11-13T16:07:54.422Z,6.86
2022-11-13T16:10:24.974Z,6.94
2022-11-13T16:12:52.766Z,6.97
2022-11-13T16:15:19.965Z,6.95
2022-11-13T16:17:50.306Z,6.93
2022-11-13T16:20:18.909Z,6.96
2022-11-13T16:22:46.260Z,6.95
2022-11-13T16:25:16.493Z,6.89
2022-11-13T16:27:43.901Z,6.82
2022-11-13T16:30:22.998Z,6.81
2022-11-13T16:32:50.140Z,6.76
2022-11-13T16:35:19.333Z,6.71
2022-11-13T16:37:46.754Z,6.67
2022-11-13T16:40:23.954Z,6.62
2022-11-13T16:42:51.793Z,6.51
2022-11-13T16:45:19.963Z,6.47
2022-11-13T16:47:48.211Z,6.39
2022-11-13T16:50:32.025Z,6.32
2022-11-13T16:53:01.247Z,6.28
2022-11-13T16:55:28.127Z,6.22
2022-11-13T16:57:54.996Z,6.17
2022-11-13T17:00:22.095Z,6.15
2022-11-13T17:02:52.797Z,6.01
2022-11-13T17:05:21.722Z,6.01
2022-11-13T17:07:51.037Z,5.89
2022-11-13T17:10:35.848Z,5.71
2022-11-13T17:13:06.660Z,5.57
2022-11-13T17:15:33.586Z,5.62
2022-11-13T17:18:00.613Z,5.62
2022-11-13T17:20:27.759Z,5.63
2022-11-13T17:22:54.724Z,5.62
2022-11-13T17:25:26.451Z,5.64
2022-11-13T17:27:53.433Z,5.58
2022-11-13T17:30:20.481Z,5.54
2022-11-13T17:32:47.451Z,5.50
2022-11-13T17:35:14.397Z,5.42
2022-11-13T17:37:41.583Z,5.38
2022-11-13T17:40:10.410Z,5.38
2022-11-13T17:42:37.791Z,5.36
2022-11-13T17:45:05.496Z,5.38
2022-11-13T17:47:34.232Z,5.41
2022-11-13T17:50:06.670Z,5.42
2022-11-13T17:52:34.627Z,5.42
2022-11-13T17:55:05.990Z,5.44
2022-11-13T17:57:33.754Z,5.43
2022-11-13T18:00:01.946Z,5.44
2022-11-13T18:02:30.676Z,5.41
2022-11-13T18:04:59.204Z,5.39
2022-11-13T18:07:26.549Z,5.36
2022-11-13T18:09:54.759Z,5.34
2022-11-13T18:12:22.334Z,5.35
2022-11-13T18:14:52.524Z,5.41
2022-11-13T18:17:20.229Z,5.41
2022-11-13T18:19:48.660Z,5.44
2022-11-13T18:22:16.506Z,5.42
2022-11-13T18:24:43.853Z,5.45
2022-11-13T18:27:11.290Z,5.44
2022-11-13T18:29:38.689Z,5.48
2022-11-13T18:32:05.913Z,5.52
2022-11-13T18:34:32.972Z,5.53
2022-11-13T18:36:59.947Z,5.52
2022-11-13T18:39:27.899Z,5.53
2022-11-13T18:41:59.168Z,5.57
2022-11-13T18:44:26.191Z,5.59
2022-11-13T18:46:53.316Z,5.59
2022-11-13T18:49:20.376Z,5.63
2022-11-13T18:51:47.492Z,5.60
2022-11-13T18:54:14.917Z,5.58
2022-11-13T18:56:42.149Z,5.61
2022-11-13T18:59:10.010Z,5.66
2022-11-13T19:01:42.159Z,5.67
2022-11-13T19:04:23.005Z,5.63
2022-11-13T19:06:50.907Z,5.65
2022-11-13T19:09:18.638Z,5.67
2022-11-13T19:11:45.893Z,5.69
2022-11-13T19:14:14.557Z,5.73
2022-11-13T19:16:41.617Z,5.67
2022-11-13T19:19:16.030Z,5.72
2022-11-13T19:21:43.713Z,5.78
2022-11-13T19:24:11.990Z,5.83
2022-11-13T19:26:40.447Z,5.86
2022-11-13T19:29:07.642Z,5.90
2022-11-13T19:31:35.862Z,5.88
2022-11-13T19:34:05.941Z,5.85
2022-11-13T19:36:33.921Z,5.91
2022-11-13T19:39:01.124Z,5.95
2022-11-13T19:41:29.530Z,5.98
2022-11-13T19:43:58.467Z,5.99
2022-11-13T19:46:25.620Z,6.03
2022-11-13T19:48:53.051Z,5.95
2022-11-13T19:51:22.958Z,5.81
2022-11-13T19:53:58.157Z,5.62
2022-11-13T19:56:27.024Z,5.31
2022-11-13T19:58:54.454Z,5.24
2022-11-13T20:01:24.670Z,4.97
2022-11-13T20:04:00.260Z,5.05
2022-11-13T20:06:28.782Z,4.95
2022-11-13T20:08:55.900Z,4.92
2022-11-13T20:11:23.022Z,4.97
2022-11-13T20:13:50.064Z,5.11
2022-11-13T20:16:17.649Z,5.13
2022-11-13T20:18:45.043Z,5.29
2022-11-13T20:21:12.790Z,5.39
2022-11-13T20:23:40.177Z,5.40
2022-11-13T20:26:10.530Z,5.27
2022-11-13T20:28:37.651Z,5.41
2022-11-13T20:31:12.753Z,5.42
2022-11-13T20:33:39.944Z,5.51
2022-11-13T20:36:07.325Z,5.58
2022-11-13T20:38:34.302Z,5.43
2022-11-13T20:41:05.733Z,5.09
2022-11-13T20:43:33.259Z,5.30
2022-11-13T20:46:07.572Z,5.43
2022-11-13T20:48:34.703Z,5.45
2022-11-13T20:51:09.472Z,5.29
2022-11-13T20:53:36.687Z,5.37
2022-11-13T20:56:04.049Z,5.28
2022-11-13T20:58:31.787Z,5.11
2022-11-13T21:01:07.944Z,4.78
2022-11-13T21:03:41.129Z,4.78
2022-11-13T21:06:10.160Z,4.75
2022-11-13T21:08:37.761Z,4.84
2022-11-13T21:11:08.634Z,5.05
2022-11-13T21:13:35.561Z,5.16
2022-11-13T21:16:07.346Z,5.17
2022-11-13T21:18:35.019Z,5.25
2022-11-13T21:21:10.837Z,5.35
2022-11-13T21:23:38.181Z,5.37
2022-11-13T21:26:06.509Z,5.43
2022-11-13T21:28:34.341Z,5.47
2022-11-13T21:31:10.745Z,5.46
2022-11-13T21:33:38.421Z,5.39
2022-11-13T21:36:07.138Z,5.45
2022-11-13T21:38:34.164Z,5.33
2022-11-13T21:41:20.923Z,5.18
2022-11-13T21:44:08.963Z,5.24
2022-11-13T21:46:37.778Z,5.04
2022-11-13T21:49:10.161Z,5.09
2022-11-13T21:51:38.231Z,5.10
2022-11-13T21:54:05.677Z,5.09
2022-11-13T21:56:34.902Z,5.20
2022-11-13T21:59:02.221Z,4.99
2022-11-13T22:01:33.698Z,4.71
2022-11-13T22:04:04.753Z,4.82
2022-11-13T22:06:33.380Z,4.97
2022-11-13T22:09:01.673Z,4.78
2022-11-13T22:11:31.343Z,4.69
2022-11-13T22:13:58.533Z,4.80
2022-11-13T22:16:30.099Z,4.66
2022-11-13T22:18:58.728Z,4.77
2022-11-13T22:21:27.148Z,4.78
2022-11-13T22:23:54.604Z,4.88
2022-11-13T22:26:22.900Z,4.64
2022-11-13T22:28:50.454Z,4.75
2022-11-13T22:31:19.844Z,4.72
2022-11-13T22:33:50.459Z,4.77
2022-11-13T22:36:22.134Z,4.77
2022-11-13T22:38:49.094Z,4.75
2022-11-13T22:41:24.127Z,4.72
2022-11-13T22:43:54.048Z,4.75
2022-11-13T22:46:22.844Z,4.78
2022-11-13T22:48:51.202Z,4.70
2022-11-13T22:51:20.945Z,4.63
2022-11-13T22:53:50.430Z,4.35
2022-11-13T22:56:18.335Z,4.21
2022-11-13T22:58:45.625Z,4.40
2022-11-13T23:01:13.917Z,4.34
2022-11-13T23:03:42.356Z,4.47
2022-11-13T23:06:10.644Z,4.57
2022-11-13T23:08:39.039Z,4.65
2022-11-13T23:11:07.425Z,4.65
2022-11-13T23:13:34.697Z,4.69
2022-11-13T23:16:02.554Z,4.51
2022-11-13T23:18:32.670Z,4.27
2022-11-13T23:20:59.700Z,4.32
2022-11-13T23:23:26.490Z,4.34
2022-11-13T23:25:53.368Z,4.39
2022-11-13T23:28:20.314Z,4.48
2022-11-13T23:30:47.308Z,4.52
2022-11-13T23:33:14.486Z,4.46
2022-11-13T23:35:44.329Z,4.41
2022-11-13T23:38:11.217Z,4.41
2022-11-13T23:40:38.123Z,4.55
2022-11-13T23:43:05.298Z,4.58
2022-11-13T23:45:32.317Z,4.59
2022-11-13T23:47:59.332Z,4.62
2022-11-13T23:50:26.383Z,4.63
2022-11-13T23:52:53.127Z,4.16
2022-11-13T23:55:21.371Z,4.06
2022-11-13T23:57:48.466Z,4.31
